Time;durP1;ratioP1;P1;durP2;ratioP2;P2;SDS_P1;SDS_P2;PMS_P1;PMS_P2;Temp;Humidity;BMP_temperature;BMP_pressure;BME280_temperature;BME280_humidity;BME280_pressure;Samples;Min_cycle;Max_cycle;Signal;HPM_P1;HPM_P2
2022/01/04 00:00:28;;;;;;;4.50;2.97;;;;;;;;;;5025001;28;20031;-31
2022/01/04 00:02:54;;;;;;;3.97;3.05;;;;;;;;;;5025326;28;20109;-34
2022/01/04 00:05:20;;;;;;;4.43;3.08;;;;;;;;;;5025687;28;20135;-34
2022/01/04 00:07:46;;;;;;;4.43;2.88;;;;;;;;;;5025289;28;20041;-32
2022/01/04 00:10:11;;;;;;;3.17;2.65;;;;;;;;;;5025084;28;20033;-35
2022/01/04 00:15:21;;;;;;;3.90;2.90;;;;;;;;;;5025079;28;20040;-29
2022/01/04 00:17:47;;;;;;;3.72;2.97;;;;;;;;;;5034071;28;20541;-30
2022/01/04 00:20:12;;;;;;;14.40;3.13;;;;;;;;;;5030204;28;20060;-34
2022/01/04 00:22:38;;;;;;;5.35;3.08;;;;;;;;;;5044799;28;20028;-31
2022/01/04 00:25:04;;;;;;;5.75;3.00;;;;;;;;;;5044777;28;20051;-32
2022/01/04 00:27:30;;;;;;;3.60;2.80;;;;;;;;;;5044799;28;20057;-34
2022/01/04 00:29:55;;;;;;;3.58;2.83;;;;;;;;;;5044409;28;20462;-31
2022/01/04 00:32:21;;;;;;;4.97;2.67;;;;;;;;;;5044618;28;20033;-32
2022/01/04 00:34:47;;;;;;;3.83;2.75;;;;;;;;;;5044483;28;20111;-33
2022/01/04 00:37:12;;;;;;;4.80;2.50;;;;;;;;;;5043080;28;20040;-34
2022/01/04 00:39:38;;;;;;;2.72;2.50;;;;;;;;;;5044766;28;20040;-30
2022/01/04 00:42:03;;;;;;;5.00;2.65;;;;;;;;;;5044475;28;20780;-35
2022/01/04 00:44:29;;;;;;;4.70;2.40;;;;;;;;;;5044114;28;20037;-34
2022/01/04 00:46:54;;;;;;;5.28;2.20;;;;;;;;;;5043856;28;20497;-31
2022/01/04 00:49:21;;;;;;;5.10;2.50;;;;;;;;;;5043846;28;20035;-30
2022/01/04 00:51:49;;;;;;;5.55;2.38;;;;;;;;;;5044436;28;20465;-33
2022/01/04 00:54:16;;;;;;;5.53;2.63;;;;;;;;;;5043830;28;20028;-31
2022/01/04 00:56:42;;;;;;;4.28;2.40;;;;;;;;;;5044331;28;20571;-38
2022/01/04 00:59:07;;;;;;;4.57;2.50;;;;;;;;;;5044024;28;20028;-30
2022/01/04 01:01:33;;;;;;;6.57;2.63;;;;;;;;;;5042986;28;20033;-33
2022/01/04 01:03:58;;;;;;;3.33;2.17;;;;;;;;;;5044006;28;20509;-35
2022/01/04 01:06:24;;;;;;;5.57;2.78;;;;;;;;;;5043882;28;20594;-36
2022/01/04 01:08:49;;;;;;;6.13;2.42;;;;;;;;;;5043675;28;20052;-33
2022/01/04 01:11:15;;;;;;;3.50;1.98;;;;;;;;;;5044020;28;20071;-33
2022/01/04 01:13:41;;;;;;;3.67;2.50;;;;;;;;;;5034695;28;20033;-35
2022/01/04 01:16:06;;;;;;;4.35;2.60;;;;;;;;;;5033969;28;20029;-30
2022/01/04 01:18:32;;;;;;;4.10;2.25;;;;;;;;;;5043186;28;20025;-33
2022/01/04 01:20:57;;;;;;;3.17;2.30;;;;;;;;;;5043395;28;20033;-35
2022/01/04 01:23:23;;;;;;;2.75;2.22;;;;;;;;;;5043775;28;20052;-32
2022/01/04 01:25:49;;;;;;;2.60;2.00;;;;;;;;;;5043591;28;20063;-35
2022/01/04 01:28:14;;;;;;;3.30;2.40;;;;;;;;;;5043528;28;20074;-29
2022/01/04 01:30:42;;;;;;;8.13;2.53;;;;;;;;;;5042619;28;20055;-32
2022/01/04 01:33:08;;;;;;;3.75;2.83;;;;;;;;;;5043317;28;20031;-29
2022/01/04 01:35:34;;;;;;;2.88;2.15;;;;;;;;;;5042561;28;20041;-34
2022/01/04 01:38:00;;;;;;;5.60;2.70;;;;;;;;;;5043218;28;20588;-32
2022/01/04 01:40:26;;;;;;;5.00;2.35;;;;;;;;;;5043072;28;20070;-31
2022/01/04 01:42:51;;;;;;;8.32;2.40;;;;;;;;;;5043010;28;20112;-35
2022/01/04 01:45:17;;;;;;;3.58;2.38;;;;;;;;;;5042992;28;20033;-31
2022/01/04 01:47:44;;;;;;;6.45;2.00;;;;;;;;;;5042687;28;20033;-29
2022/01/04 01:50:11;;;;;;;3.47;2.17;;;;;;;;;;5042730;28;20041;-31
2022/01/04 01:52:37;;;;;;;8.20;2.30;;;;;;;;;;5042710;28;20037;-33
2022/01/04 01:55:02;;;;;;;7.13;3.03;;;;;;;;;;5042175;28;20024;-29
2022/01/04 01:57:28;;;;;;;5.63;2.05;;;;;;;;;;5042857;28;20175;-28
2022/01/04 01:59:54;;;;;;;6.80;2.42;;;;;;;;;;5042587;28;20529;-33
2022/01/04 02:02:19;;;;;;;9.52;2.10;;;;;;;;;;5042530;28;20028;-30
2022/01/04 02:04:45;;;;;;;2.38;2.00;;;;;;;;;;5042398;28;20060;-32
2022/01/04 02:07:10;;;;;;;3.58;2.17;;;;;;;;;;5042357;28;20068;-33
2022/01/04 02:09:40;;;;;;;6.35;2.00;;;;;;;;;;5024123;28;20509;-34
2022/01/04 02:12:06;;;;;;;2.72;1.90;;;;;;;;;;5018142;28;20025;-32
2022/01/04 02:14:31;;;;;;;5.35;1.90;;;;;;;;;;5021175;28;20167;-33
2022/01/04 02:16:57;;;;;;;3.17;1.95;;;;;;;;;;5039977;28;20037;-32
2022/01/04 02:19:23;;;;;;;2.75;1.90;;;;;;;;;;5022180;28;20025;-32
2022/01/04 02:21:48;;;;;;;2.55;1.92;;;;;;;;;;5022783;28;20037;-33
2022/01/04 02:24:14;;;;;;;4.55;2.10;;;;;;;;;;5022567;28;20037;-32
2022/01/04 02:26:39;;;;;;;2.55;1.90;;;;;;;;;;5022277;28;20025;-33
2022/01/04 02:29:07;;;;;;;3.22;1.90;;;;;;;;;;5022287;28;20037;-34
2022/01/04 02:31:32;;;;;;;2.47;1.70;;;;;;;;;;5022436;28;20411;-34
2022/01/04 02:33:58;;;;;;;2.17;1.92;;;;;;;;;;5022424;28;20040;-33
2022/01/04 02:36:23;;;;;;;2.58;2.00;;;;;;;;;;5022637;28;20448;-33
2022/01/04 02:38:51;;;;;;;3.17;1.75;;;;;;;;;;5022636;28;20096;-35
2022/01/04 02:41:16;;;;;;;3.35;2.03;;;;;;;;;;5022139;28;20034;-32
2022/01/04 02:43:42;;;;;;;3.55;2.00;;;;;;;;;;5022498;28;20083;-30
2022/01/04 02:46:07;;;;;;;2.10;1.73;;;;;;;;;;5022023;28;20522;-34
2022/01/04 02:48:40;;;;;;;2.50;1.75;;;;;;;;;;5022105;28;20040;-30
2022/01/04 02:51:06;;;;;;;5.28;2.00;;;;;;;;;;5022051;28;20025;-30
2022/01/04 02:53:31;;;;;;;2.47;1.73;;;;;;;;;;5022266;28;20084;-31
2022/01/04 02:55:57;;;;;;;5.85;1.67;;;;;;;;;;5021775;28;20030;-34
2022/01/04 02:58:22;;;;;;;1.88;1.55;;;;;;;;;;5021665;28;20033;-30
2022/01/04 03:00:48;;;;;;;3.72;1.70;;;;;;;;;;5024737;28;20492;-31
2022/01/04 03:03:13;;;;;;;2.67;1.50;;;;;;;;;;5040816;28;20041;-30
2022/01/04 03:05:39;;;;;;;2.30;1.65;;;;;;;;;;5025998;28;20036;-35
2022/01/04 03:08:04;;;;;;;3.92;1.70;;;;;;;;;;5025969;28;20057;-28
2022/01/04 03:10:30;;;;;;;2.65;2.08;;;;;;;;;;5025641;28;20037;-31
2022/01/04 03:12:57;;;;;;;2.28;1.50;;;;;;;;;;5035772;28;20393;-32
2022/01/04 03:15:22;;;;;;;1.98;1.67;;;;;;;;;;5025868;28;20046;-38
2022/01/04 03:17:47;;;;;;;2.40;1.70;;;;;;;;;;5025851;28;20045;-33
2022/01/04 03:20:13;;;;;;;2.20;1.63;;;;;;;;;;5025486;28;20092;-30
2022/01/04 03:22:39;;;;;;;3.95;1.90;;;;;;;;;;5026113;28;20037;-36
2022/01/04 03:25:05;;;;;;;4.95;2.00;;;;;;;;;;5025738;28;20029;-29
2022/01/04 03:27:31;;;;;;;4.63;1.90;;;;;;;;;;5025656;28;20033;-30
2022/01/04 03:29:56;;;;;;;3.55;1.52;;;;;;;;;;5025614;28;20025;-31
2022/01/04 03:32:22;;;;;;;3.15;1.70;;;;;;;;;;5025628;28;20561;-31
2022/01/04 03:34:47;;;;;;;1.80;1.60;;;;;;;;;;5025496;28;20033;-31
2022/01/04 03:37:13;;;;;;;2.08;1.40;;;;;;;;;;5025380;28;20029;-30
2022/01/04 03:39:38;;;;;;;4.40;1.60;;;;;;;;;;5025493;28;20561;-30
2022/01/04 03:42:05;;;;;;;1.95;1.38;;;;;;;;;;5025057;28;20029;-32
2022/01/04 03:44:30;;;;;;;3.55;1.70;;;;;;;;;;5025083;28;20040;-32
2022/01/04 03:46:56;;;;;;;6.45;1.70;;;;;;;;;;5024854;28;20055;-31
2022/01/04 03:49:22;;;;;;;1.50;1.17;;;;;;;;;;5025126;28;20033;-35
2022/01/04 03:51:48;;;;;;;1.92;1.52;;;;;;;;;;5025288;28;20029;-31
2022/01/04 03:54:13;;;;;;;3.38;1.65;;;;;;;;;;5025083;28;20037;-31
2022/01/04 03:56:39;;;;;;;2.65;1.60;;;;;;;;;;5025437;28;20034;-29
2022/01/04 03:59:05;;;;;;;11.55;1.55;;;;;;;;;;5024862;28;20500;-31
2022/01/04 04:01:30;;;;;;;8.10;1.60;;;;;;;;;;5024916;28;20033;-30
2022/01/04 04:03:55;;;;;;;21.50;2.45;;;;;;;;;;5025148;28;20030;-32
2022/01/04 04:06:21;;;;;;;6.72;1.70;;;;;;;;;;5028885;28;20875;-32
2022/01/04 04:08:47;;;;;;;20.30;3.10;;;;;;;;;;5043937;28;20041;-29
2022/01/04 04:11:12;;;;;;;6.72;1.45;;;;;;;;;;5027322;28;20084;-34
2022/01/04 04:13:38;;;;;;;9.13;1.30;;;;;;;;;;5041963;28;20932;-32
2022/01/04 04:16:04;;;;;;;8.60;2.00;;;;;;;;;;5043961;28;20136;-31
2022/01/04 04:18:29;;;;;;;7.47;1.70;;;;;;;;;;5045040;28;20024;-34
2022/01/04 04:20:57;;;;;;;8.20;1.88;;;;;;;;;;5044346;28;20060;-30
2022/01/04 04:23:23;;;;;;;10.40;2.08;;;;;;;;;;5044313;28;20033;-29
2022/01/04 04:25:48;;;;;;;8.90;1.60;;;;;;;;;;5044657;28;20740;-32
2022/01/04 04:28:14;;;;;;;5.45;1.58;;;;;;;;;;5043888;28;20503;-32
2022/01/04 04:30:39;;;;;;;10.05;1.70;;;;;;;;;;5044604;28;20025;-33
2022/01/04 04:33:05;;;;;;;10.82;1.73;;;;;;;;;;5044416;28;20539;-34
2022/01/04 04:35:31;;;;;;;10.27;2.15;;;;;;;;;;5044399;28;20035;-28
2022/01/04 04:37:58;;;;;;;14.57;2.00;;;;;;;;;;5044347;28;20549;-30
2022/01/04 04:40:23;;;;;;;5.32;1.50;;;;;;;;;;5044078;28;20498;-32
2022/01/04 04:42:49;;;;;;;6.38;1.48;;;;;;;;;;5044336;28;20044;-34
2022/01/04 04:45:14;;;;;;;9.63;2.70;;;;;;;;;;5043654;28;20033;-31
2022/01/04 04:47:40;;;;;;;7.93;1.80;;;;;;;;;;5044062;28;20075;-32
2022/01/04 04:50:06;;;;;;;9.43;1.60;;;;;;;;;;5043769;28;20499;-34
2022/01/04 04:52:32;;;;;;;3.95;1.30;;;;;;;;;;5043948;28;20032;-33
2022/01/04 04:54:57;;;;;;;6.28;1.65;;;;;;;;;;5043730;28;20127;-28
2022/01/04 04:57:23;;;;;;;10.10;1.88;;;;;;;;;;5043679;28;20033;-33
2022/01/04 04:59:48;;;;;;;8.32;1.70;;;;;;;;;;5044287;28;20116;-34
2022/01/04 05:02:14;;;;;;;6.05;1.55;;;;;;;;;;5043769;28;20056;-34
2022/01/04 05:04:39;;;;;;;9.35;1.98;;;;;;;;;;5042961;28;20056;-32
2022/01/04 05:07:05;;;;;;;7.03;1.63;;;;;;;;;;5038049;28;20026;-33
2022/01/04 05:09:31;;;;;;;5.03;1.60;;;;;;;;;;5039151;28;20120;-32
2022/01/04 05:11:56;;;;;;;5.05;1.70;;;;;;;;;;5027595;28;20044;-29
2022/01/04 05:14:22;;;;;;;5.97;1.75;;;;;;;;;;5023474;28;20044;-32
2022/01/04 05:16:47;;;;;;;4.32;1.67;;;;;;;;;;5023748;28;20463;-36
2022/01/04 05:19:13;;;;;;;3.60;1.58;;;;;;;;;;5023171;28;20072;-33
2022/01/04 05:21:39;;;;;;;2.67;1.40;;;;;;;;;;5023599;28;20041;-31
2022/01/04 05:24:04;;;;;;;2.58;1.30;;;;;;;;;;5022742;28;20610;-35
2022/01/04 05:26:32;;;;;;;2.05;1.55;;;;;;;;;;5023530;28;20065;-32
2022/01/04 05:28:58;;;;;;;5.85;1.60;;;;;;;;;;5023284;28;20063;-32
2022/01/04 05:31:24;;;;;;;4.85;1.50;;;;;;;;;;5023070;28;20040;-31
2022/01/04 05:33:49;;;;;;;2.53;1.25;;;;;;;;;;5023223;28;20061;-29
2022/01/04 05:36:15;;;;;;;2.40;1.40;;;;;;;;;;5023055;28;20196;-30
2022/01/04 05:38:40;;;;;;;3.35;1.40;;;;;;;;;;5023187;28;20026;-31
2022/01/04 05:41:06;;;;;;;4.05;1.42;;;;;;;;;;5022977;28;20061;-34
2022/01/04 05:43:31;;;;;;;2.50;1.25;;;;;;;;;;5022744;28;20612;-33
2022/01/04 05:45:57;;;;;;;2.90;1.40;;;;;;;;;;5022228;28;20648;-30
2022/01/04 05:48:22;;;;;;;2.90;1.40;;;;;;;;;;5022509;28;20396;-33
2022/01/04 05:50:48;;;;;;;3.28;1.15;;;;;;;;;;5023154;28;20042;-36
2022/01/04 05:53:14;;;;;;;1.92;1.38;;;;;;;;;;5023013;28;20040;-35
2022/01/04 05:55:39;;;;;;;3.38;1.48;;;;;;;;;;5023016;28;20568;-33
2022/01/04 05:58:05;;;;;;;3.33;1.50;;;;;;;;;;5021618;28;20041;-35
2022/01/04 06:00:30;;;;;;;3.55;1.38;;;;;;;;;;5022162;28;20021;-30
2022/01/04 06:02:58;;;;;;;2.17;1.65;;;;;;;;;;5037501;28;20025;-31
2022/01/04 06:05:24;;;;;;;1.63;1.40;;;;;;;;;;5023027;28;20044;-32
2022/01/04 06:07:49;;;;;;;1.60;1.20;;;;;;;;;;5023390;28;20132;-35
2022/01/04 06:10:15;;;;;;;2.10;1.08;;;;;;;;;;5028137;28;20032;-32
2022/01/04 06:15:11;;;;;;;2.00;1.20;;;;;;;;;;5042072;28;20040;-32
2022/01/04 06:17:43;;;;;;;1.67;1.25;;;;;;;;;;5042018;28;20040;-30
2022/01/04 06:20:11;;;;;;;3.28;1.70;;;;;;;;;;5041780;28;20120;-33
2022/01/04 06:22:39;;;;;;;1.90;1.30;;;;;;;;;;5042764;28;20419;-30
2022/01/04 06:25:07;;;;;;;4.93;1.40;;;;;;;;;;5042012;28;20570;-32
2022/01/04 06:27:32;;;;;;;9.23;1.65;;;;;;;;;;5042099;28;20071;-34
2022/01/04 06:29:58;;;;;;;10.90;1.33;;;;;;;;;;5042440;28;20049;-32
2022/01/04 06:32:23;;;;;;;5.30;1.33;;;;;;;;;;5042067;28;20759;-32
2022/01/04 06:34:49;;;;;;;10.00;1.98;;;;;;;;;;5041855;28;20624;-33
2022/01/04 06:37:15;;;;;;;6.22;1.52;;;;;;;;;;5042171;28;20033;-34
2022/01/04 06:39:40;;;;;;;4.57;1.50;;;;;;;;;;5042046;28;20025;-31
2022/01/04 06:42:06;;;;;;;3.42;1.02;;;;;;;;;;5024494;28;20806;-32
2022/01/04 06:44:32;;;;;;;5.03;1.30;;;;;;;;;;5021728;28;20146;-35
2022/01/04 06:46:57;;;;;;;1.98;1.05;;;;;;;;;;5022250;28;20021;-33
2022/01/04 06:49:23;;;;;;;3.50;1.42;;;;;;;;;;5021954;28;20113;-32
2022/01/04 06:51:48;;;;;;;4.63;1.10;;;;;;;;;;5022360;28;20087;-30
2022/01/04 06:54:15;;;;;;;4.15;1.05;;;;;;;;;;5021785;28;20033;-32
2022/01/04 06:56:40;;;;;;;3.95;1.25;;;;;;;;;;5021859;28;20455;-35
2022/01/04 06:59:06;;;;;;;1.98;1.00;;;;;;;;;;5021928;28;20029;-34
2022/01/04 07:01:33;;;;;;;2.55;0.98;;;;;;;;;;5022128;28;20068;-32
2022/01/04 07:03:58;;;;;;;5.40;1.30;;;;;;;;;;5022562;28;20045;-32
2022/01/04 07:06:24;;;;;;;5.20;3.10;;;;;;;;;;5024754;28;20495;-35
2022/01/04 07:08:49;;;;;;;7.10;2.75;;;;;;;;;;5022702;28;20089;-29
2022/01/04 07:11:16;;;;;;;2.55;2.03;;;;;;;;;;5021844;28;20044;-28
2022/01/04 07:13:41;;;;;;;2.83;2.05;;;;;;;;;;5021834;28;20045;-30
2022/01/04 07:16:08;;;;;;;3.35;1.95;;;;;;;;;;5021494;28;20516;-33
2022/01/04 07:18:34;;;;;;;3.47;2.20;;;;;;;;;;5021712;28;20041;-28
2022/01/04 07:20:59;;;;;;;3.88;1.90;;;;;;;;;;5021699;28;20045;-30
2022/01/04 07:23:25;;;;;;;2.60;1.85;;;;;;;;;;5021689;28;20040;-30
2022/01/04 07:25:51;;;;;;;3.55;2.15;;;;;;;;;;5021652;28;20068;-32
2022/01/04 07:28:17;;;;;;;3.65;2.17;;;;;;;;;;5021757;28;20593;-31
2022/01/04 07:30:43;;;;;;;2.22;1.58;;;;;;;;;;5021758;28;20029;-28
2022/01/04 07:33:08;;;;;;;3.42;1.65;;;;;;;;;;5021786;28;20036;-31
2022/01/04 07:35:33;;;;;;;5.57;1.92;;;;;;;;;;5021832;28;20481;-30
2022/01/04 07:37:59;;;;;;;3.97;1.88;;;;;;;;;;5021536;28;20041;-36
2022/01/04 07:40:25;;;;;;;4.07;1.35;;;;;;;;;;5021499;28;20045;-35
2022/01/04 07:42:50;;;;;;;8.23;1.50;;;;;;;;;;5021463;28;20029;-35
2022/01/04 07:45:16;;;;;;;5.80;1.60;;;;;;;;;;5021852;28;20068;-35
2022/01/04 07:47:41;;;;;;;6.38;2.72;;;;;;;;;;5025097;28;20025;-33
2022/01/04 07:50:08;;;;;;;3.50;1.33;;;;;;;;;;5025280;28;20156;-32
2022/01/04 07:52:34;;;;;;;4.30;1.35;;;;;;;;;;5024240;28;20117;-31
2022/01/04 07:55:00;;;;;;;3.38;1.50;;;;;;;;;;5024993;28;20120;-32
2022/01/04 07:57:25;;;;;;;4.40;1.70;;;;;;;;;;5024729;28;20167;-31
2022/01/04 07:59:51;;;;;;;3.15;1.65;;;;;;;;;;5024741;28;20040;-31
2022/01/04 08:02:16;;;;;;;3.67;1.70;;;;;;;;;;5024922;28;20067;-34
2022/01/04 08:04:42;;;;;;;2.35;1.52;;;;;;;;;;5042703;28;20029;-32
2022/01/04 08:07:07;;;;;;;2.65;1.77;;;;;;;;;;5036027;28;20037;-31
2022/01/04 08:09:33;;;;;;;10.98;1.83;;;;;;;;;;5043461;28;20048;-33
2022/01/04 08:11:58;;;;;;;3.60;2.22;;;;;;;;;;5044443;28;20044;-32
2022/01/04 08:14:24;;;;;;;9.95;2.95;;;;;;;;;;5044706;28;20102;-29
2022/01/04 08:16:50;;;;;;;5.93;3.80;;;;;;;;;;5044556;28;20070;-32
2022/01/04 08:19:15;;;;;;;5.93;4.10;;;;;;;;;;5044648;28;20108;-30
2022/01/04 08:21:41;;;;;;;6.22;4.13;;;;;;;;;;5044944;28;20020;-29
2022/01/04 08:24:06;;;;;;;6.70;3.63;;;;;;;;;;5044670;28;20490;-32
2022/01/04 08:26:32;;;;;;;8.80;4.25;;;;;;;;;;5044013;28;20106;-29
2022/01/04 08:28:58;;;;;;;6.85;4.30;;;;;;;;;;5044155;28;20662;-30
2022/01/04 08:31:23;;;;;;;8.45;4.43;;;;;;;;;;5044357;28;20021;-32
2022/01/04 08:33:49;;;;;;;7.65;5.00;;;;;;;;;;5044207;28;20029;-34
2022/01/04 08:36:15;;;;;;;8.63;4.97;;;;;;;;;;5044169;28;20044;-31
2022/01/04 08:38:40;;;;;;;7.22;5.03;;;;;;;;;;5059232;28;20035;-34
2022/01/04 08:41:06;;;;;;;7.10;4.90;;;;;;;;;;5044007;28;20769;-34
2022/01/04 08:43:32;;;;;;;9.13;4.93;;;;;;;;;;5043848;28;20136;-32
2022/01/04 08:45:57;;;;;;;8.45;5.65;;;;;;;;;;5044174;28;20458;-33
2022/01/04 08:48:23;;;;;;;9.57;5.50;;;;;;;;;;5044053;28;20021;-35
2022/01/04 08:50:49;;;;;;;8.70;5.95;;;;;;;;;;5043981;28;20471;-33
2022/01/04 08:53:15;;;;;;;9.07;6.25;;;;;;;;;;5043843;28;20733;-37
2022/01/04 08:55:40;;;;;;;13.65;6.93;;;;;;;;;;5043930;28;20091;-34
2022/01/04 08:58:06;;;;;;;12.02;7.45;;;;;;;;;;5042716;28;20033;-32
2022/01/04 09:00:32;;;;;;;13.25;7.57;;;;;;;;;;5039315;28;20033;-31
2022/01/04 09:02:59;;;;;;;16.00;8.23;;;;;;;;;;5031014;28;20033;-32
2022/01/04 09:05:25;;;;;;;43.00;13.13;;;;;;;;;;5042283;28;20032;-38
2022/01/04 09:07:51;;;;;;;28.25;11.70;;;;;;;;;;5023613;28;20053;-30
2022/01/04 09:10:17;;;;;;;28.60;12.70;;;;;;;;;;5043197;28;20033;-30
2022/01/04 09:21:02;;;;;;;29.17;12.25;;;;;;;;;;5043491;28;20124;-30
2022/01/04 09:23:28;;;;;;;24.35;13.02;;;;;;;;;;5042743;28;20411;-36
2022/01/04 09:25:54;;;;;;;16.75;10.38;;;;;;;;;;5042661;28;20115;-33
2022/01/04 09:28:21;;;;;;;15.05;8.73;;;;;;;;;;5042866;28;20036;-33
2022/01/04 09:30:47;;;;;;;19.88;9.45;;;;;;;;;;5043315;28;20025;-31
2022/01/04 09:33:13;;;;;;;12.65;8.82;;;;;;;;;;5043157;28;20517;-32
2022/01/04 09:35:38;;;;;;;14.00;8.13;;;;;;;;;;5041424;28;20025;-32
2022/01/04 09:38:04;;;;;;;15.40;9.40;;;;;;;;;;5043006;28;20025;-34
2022/01/04 09:40:30;;;;;;;41.80;25.65;;;;;;;;;;5042818;28;20029;-32
2022/01/04 09:42:56;;;;;;;45.25;26.88;;;;;;;;;;5042938;28;20057;-29
2022/01/04 09:45:22;;;;;;;29.25;18.10;;;;;;;;;;5042271;28;20106;-31
2022/01/04 09:47:47;;;;;;;24.17;14.00;;;;;;;;;;5042897;28;20032;-33
2022/01/04 09:50:13;;;;;;;16.70;11.07;;;;;;;;;;5043017;28;20025;-34
2022/01/04 09:52:42;;;;;;;29.25;8.90;;;;;;;;;;5042693;28;20063;-36
2022/01/04 09:55:09;;;;;;;20.83;8.80;;;;;;;;;;5042797;28;20087;-32
2022/01/04 09:57:35;;;;;;;110.65;25.15;;;;;;;;;;5042426;28;20029;-32
2022/01/04 10:00:00;;;;;;;72.72;17.45;;;;;;;;;;5042665;28;20083;-33
2022/01/04 10:02:30;;;;;;;64.32;16.48;;;;;;;;;;5032479;28;20106;-32
2022/01/04 10:05:20;;;;;;;73.43;14.95;;;;;;;;;;5034014;28;20044;-32
2022/01/04 10:07:47;;;;;;;41.28;10.85;;;;;;;;;;5041664;28;20502;-32
2022/01/04 10:10:14;;;;;;;42.40;10.05;;;;;;;;;;5042460;28;20036;-30
2022/01/04 10:12:49;;;;;;;31.60;9.32;;;;;;;;;;5043064;28;20039;-31
2022/01/04 10:15:28;;;;;;;66.28;12.50;;;;;;;;;;5042493;28;20160;-31
2022/01/04 10:17:56;;;;;;;39.47;9.40;;;;;;;;;;5042573;28;20790;-33
2022/01/04 10:20:21;;;;;;;40.63;8.95;;;;;;;;;;5042289;28;20132;-30
2022/01/04 10:22:47;;;;;;;40.15;9.40;;;;;;;;;;5042242;28;20698;-34
2022/01/04 10:25:13;;;;;;;32.40;9.23;;;;;;;;;;5057589;28;20036;-31
2022/01/04 10:27:51;;;;;;;30.30;8.70;;;;;;;;;;5042055;28;20055;-32
2022/01/04 10:30:30;;;;;;;28.25;8.57;;;;;;;;;;5042151;28;20087;-34
2022/01/04 10:32:59;;;;;;;29.23;8.13;;;;;;;;;;5041733;28;20033;-29
2022/01/04 10:35:35;;;;;;;34.90;8.82;;;;;;;;;;5041759;28;20544;-35
2022/01/04 10:38:11;;;;;;;25.38;8.70;;;;;;;;;;5042365;28;20036;-35
2022/01/04 10:40:37;;;;;;;22.25;7.65;;;;;;;;;;5040269;28;20033;-31
2022/01/04 10:43:14;;;;;;;19.30;7.05;;;;;;;;;;5041848;28;20522;-33
2022/01/04 10:45:42;;;;;;;21.35;8.68;;;;;;;;;;5042046;28;20039;-33
2022/01/04 10:48:16;;;;;;;21.15;8.23;;;;;;;;;;5042228;28;20053;-33
2022/01/04 10:50:43;;;;;;;17.90;7.53;;;;;;;;;;5042070;28;20120;-33
2022/01/04 10:53:22;;;;;;;20.77;6.72;;;;;;;;;;5041704;28;20040;-32
2022/01/04 10:55:50;;;;;;;25.40;8.35;;;;;;;;;;5041552;28;20040;-34
2022/01/04 10:58:20;;;;;;;19.30;6.93;;;;;;;;;;5041697;28;20064;-32
2022/01/04 11:01:00;;;;;;;24.98;8.20;;;;;;;;;;5041115;28;20040;-33
2022/01/04 11:03:31;;;;;;;22.70;6.82;;;;;;;;;;5022570;28;20060;-31
2022/01/04 11:06:05;;;;;;;19.83;8.52;;;;;;;;;;5037611;28;20498;-31
2022/01/04 11:08:30;;;;;;;17.08;9.98;;;;;;;;;;5041063;28;20411;-35
2022/01/04 11:10:56;;;;;;;20.05;9.60;;;;;;;;;;5042161;28;20093;-33
2022/01/04 11:13:23;;;;;;;22.27;9.88;;;;;;;;;;5039497;28;20016;-32
2022/01/04 11:15:48;;;;;;;13.93;8.98;;;;;;;;;;5041516;28;20079;-34
2022/01/04 11:18:14;;;;;;;18.00;8.50;;;;;;;;;;5041984;28;20057;-33
2022/01/04 11:20:40;;;;;;;15.48;7.82;;;;;;;;;;5042423;28;20438;-35
2022/01/04 11:23:06;;;;;;;15.63;7.85;;;;;;;;;;5045586;28;20029;-31
2022/01/04 11:25:33;;;;;;;14.65;7.75;;;;;;;;;;5044907;28;20029;-31
2022/01/04 11:28:01;;;;;;;15.07;7.38;;;;;;;;;;5044077;28;20529;-29
2022/01/04 11:30:33;;;;;;;11.98;7.55;;;;;;;;;;5045578;28;20067;-29
2022/01/04 11:33:03;;;;;;;13.63;8.03;;;;;;;;;;5045095;28;20647;-33
2022/01/04 11:35:29;;;;;;;14.13;7.50;;;;;;;;;;5043689;28;20033;-30
2022/01/04 11:37:59;;;;;;;12.02;6.55;;;;;;;;;;5056094;28;20068;-35
2022/01/04 11:40:26;;;;;;;11.95;6.97;;;;;;;;;;5038077;28;20098;-29
2022/01/04 11:42:53;;;;;;;10.63;6.32;;;;;;;;;;5045677;28;20024;-32
2022/01/04 11:45:47;;;;;;;9.70;6.90;;;;;;;;;;5045347;28;20024;-30
2022/01/04 11:48:31;;;;;;;12.63;7.00;;;;;;;;;;5044774;28;20028;-34
2022/01/04 11:50:58;;;;;;;9.10;6.07;;;;;;;;;;5045635;28;20418;-35
2022/01/04 11:53:24;;;;;;;10.23;6.25;;;;;;;;;;5044634;28;20036;-34
2022/01/04 11:56:09;;;;;;;9.88;6.50;;;;;;;;;;5034528;28;20045;-33
2022/01/04 11:58:51;;;;;;;9.93;5.90;;;;;;;;;;5025164;28;20030;-29
2022/01/04 12:01:27;;;;;;;8.40;6.45;;;;;;;;;;5041519;28;20033;-32
2022/01/04 12:03:53;;;;;;;9.48;5.90;;;;;;;;;;5027585;28;20148;-35
2022/01/04 12:06:20;;;;;;;9.30;5.75;;;;;;;;;;5042395;28;20512;-32
2022/01/04 12:08:47;;;;;;;8.27;6.20;;;;;;;;;;5042597;28;20449;-32
2022/01/04 12:11:25;;;;;;;10.02;5.68;;;;;;;;;;5044855;28;20514;-33
2022/01/04 12:13:52;;;;;;;12.68;6.20;;;;;;;;;;5044305;28;20033;-28
2022/01/04 12:16:34;;;;;;;9.73;5.93;;;;;;;;;;5044139;28;20383;-33
2022/01/04 12:19:01;;;;;;;10.07;6.13;;;;;;;;;;5044062;28;20039;-36
2022/01/04 12:21:32;;;;;;;9.18;5.70;;;;;;;;;;5043838;28;20029;-30
2022/01/04 12:23:57;;;;;;;10.90;6.25;;;;;;;;;;5044939;28;20444;-34
2022/01/04 12:26:32;;;;;;;9.10;6.03;;;;;;;;;;5044598;28;20025;-30
2022/01/04 12:28:58;;;;;;;8.95;5.53;;;;;;;;;;5044776;28;20025;-31
2022/01/04 12:31:30;;;;;;;10.65;6.05;;;;;;;;;;5043898;28;20048;-36
2022/01/04 12:33:56;;;;;;;13.20;5.53;;;;;;;;;;5044117;28;20276;-33
2022/01/04 12:36:35;;;;;;;13.55;5.38;;;;;;;;;;5043999;28;20029;-29
2022/01/04 12:39:14;;;;;;;13.18;5.32;;;;;;;;;;5044282;28;20037;-33
2022/01/04 12:41:40;;;;;;;10.00;5.63;;;;;;;;;;5044298;28;20355;-35
2022/01/04 12:44:07;;;;;;;9.65;5.47;;;;;;;;;;5043940;28;20039;-31
2022/01/04 12:46:37;;;;;;;9.98;5.18;;;;;;;;;;5044553;28;20107;-32
2022/01/04 12:49:06;;;;;;;7.82;5.00;;;;;;;;;;5044268;28;20033;-37
2022/01/04 12:51:37;;;;;;;9.27;5.13;;;;;;;;;;5043619;28;20021;-32
2022/01/04 12:54:06;;;;;;;11.27;5.22;;;;;;;;;;5044031;28;20087;-31
2022/01/04 12:56:31;;;;;;;13.05;4.70;;;;;;;;;;5044057;28;20560;-29
2022/01/04 12:58:57;;;;;;;9.27;5.30;;;;;;;;;;5037917;28;20021;-29
2022/01/04 13:01:29;;;;;;;8.00;5.13;;;;;;;;;;5024409;28;20107;-32
2022/01/04 13:03:55;;;;;;;7.80;4.60;;;;;;;;;;5025038;28;20033;-32
2022/01/04 13:06:24;;;;;;;7.30;4.82;;;;;;;;;;5042574;28;20148;-31
2022/01/04 13:08:53;;;;;;;10.07;4.60;;;;;;;;;;5043792;28;20220;-34
2022/01/04 13:11:18;;;;;;;9.93;4.82;;;;;;;;;;5043905;28;20564;-35
2022/01/04 13:14:01;;;;;;;8.73;4.57;;;;;;;;;;5044038;28;20033;-34
2022/01/04 13:16:34;;;;;;;7.20;4.80;;;;;;;;;;5043515;28;20037;-36
2022/01/04 13:19:20;;;;;;;11.20;4.82;;;;;;;;;;5044031;28;20037;-32
2022/01/04 13:21:53;;;;;;;8.13;4.68;;;;;;;;;;5043125;28;20048;-34
2022/01/04 13:24:38;;;;;;;13.75;5.25;;;;;;;;;;5043436;28;20029;-30
2022/01/04 13:27:19;;;;;;;9.02;4.43;;;;;;;;;;5043575;28;20033;-35
2022/01/04 13:29:47;;;;;;;8.07;4.20;;;;;;;;;;5043428;28;20029;-30
2022/01/04 13:32:13;;;;;;;8.88;5.03;;;;;;;;;;5043517;28;20032;-33
2022/01/04 13:34:38;;;;;;;6.32;4.35;;;;;;;;;;5043295;28;20518;-33
2022/01/04 13:37:04;;;;;;;11.23;5.00;;;;;;;;;;5043520;28;20025;-36
2022/01/04 13:39:29;;;;;;;8.75;4.75;;;;;;;;;;5043598;28;20040;-35
2022/01/04 13:41:55;;;;;;;8.27;4.97;;;;;;;;;;5043405;28;20070;-31
2022/01/04 13:44:21;;;;;;;10.45;5.03;;;;;;;;;;5042838;28;20123;-30
2022/01/04 13:46:46;;;;;;;13.90;6.97;;;;;;;;;;5043306;28;20029;-29
2022/01/04 13:49:11;;;;;;;9.98;7.05;;;;;;;;;;5042537;28;20098;-33
2022/01/04 13:51:38;;;;;;;9.27;6.05;;;;;;;;;;5042824;28;20039;-32
2022/01/04 13:54:11;;;;;;;9.27;6.22;;;;;;;;;;5042814;28;20033;-31
2022/01/04 13:56:37;;;;;;;;;;;;;;;;;;5043606;28;20044;-36
2022/01/04 13:59:02;;;;;;;7.78;5.07;;;;;;;;;;5042008;28;19916;-35
2022/01/04 14:01:35;;;;;;;11.30;6.13;;;;;;;;;;5036457;28;20022;-33
2022/01/04 14:04:13;;;;;;;10.80;6.15;;;;;;;;;;5030045;28;20052;-34
2022/01/04 14:06:40;;;;;;;9.88;5.93;;;;;;;;;;5042470;28;20128;-33
2022/01/04 14:09:20;;;;;;;7.90;5.63;;;;;;;;;;5028912;28;20053;-34
2022/01/04 14:11:54;;;;;;;12.60;6.50;;;;;;;;;;5022887;28;20044;-33
2022/01/04 14:14:20;;;;;;;14.02;6.93;;;;;;;;;;5022922;28;20056;-34
2022/01/04 14:16:48;;;;;;;36.33;13.20;;;;;;;;;;5022322;28;20033;-34
2022/01/04 14:19:24;;;;;;;30.67;12.30;;;;;;;;;;5022995;28;20122;-30
2022/01/04 14:21:54;;;;;;;38.45;17.88;;;;;;;;;;5022773;28;20026;-29
2022/01/04 14:24:49;;;;;;;40.63;18.92;;;;;;;;;;5022083;28;20033;-32
2022/01/04 14:27:36;;;;;;;42.05;18.90;;;;;;;;;;5022206;28;20046;-32
2022/01/04 14:30:05;;;;;;;44.25;20.25;;;;;;;;;;5022999;28;20030;-35
2022/01/04 14:32:33;;;;;;;44.47;19.27;;;;;;;;;;5042100;28;20064;-33
2022/01/04 14:35:00;;;;;;;46.38;18.70;;;;;;;;;;5040937;28;20063;-32
2022/01/04 14:37:26;;;;;;;37.03;18.63;;;;;;;;;;5039809;28;20029;-34
2022/01/04 14:39:52;;;;;;;38.85;17.38;;;;;;;;;;5022394;28;20091;-33
2022/01/04 14:42:18;;;;;;;41.05;17.73;;;;;;;;;;5022510;28;20036;-33
2022/01/04 14:44:44;;;;;;;32.90;16.42;;;;;;;;;;5022530;28;20033;-34
2022/01/04 14:47:09;;;;;;;40.85;17.48;;;;;;;;;;5022503;28;20731;-33
2022/01/04 14:49:35;;;;;;;32.25;15.65;;;;;;;;;;5022381;28;20029;-34
2022/01/04 14:52:01;;;;;;;33.95;15.55;;;;;;;;;;5022598;28;20115;-38